sensor_id;sensor_type;location;lat;lon;timestamp;P1;durP1;ratioP1;P2;durP2;ratioP2
17818;SDS011;9034;50.284;19.310;2023-02-22T00:00:52;44.10;;;20.85;;
17818;SDS011;9034;50.284;19.310;2023-02-22T00:02:00;37.58;;;20.90;;
17818;SDS011;9034;50.284;19.310;2023-02-22T00:03:12;35.38;;;17.90;;
17818;SDS011;9034;50.284;19.310;2023-02-22T00:04:17;44.55;;;20.30;;
17818;SDS011;9034;50.284;19.310;2023-02-22T00:05:21;41.97;;;19.50;;
17818;SDS011;9034;50.284;19.310;2023-02-22T00:06:25;37.90;;;18.70;;
17818;SDS011;9034;50.284;19.310;2023-02-22T00:07:27;41.72;;;21.77;;
17818;SDS011;9034;50.284;19.310;2023-02-22T00:08:30;37.92;;;19.00;;
17818;SDS011;9034;50.284;19.310;2023-02-22T00:09:34;38.45;;;20.55;;
17818;SDS011;9034;50.284;19.310;2023-02-22T00:10:36;42.90;;;20.63;;
17818;SDS011;9034;50.284;19.310;2023-02-22T00:11:43;39.15;;;18.27;;
17818;SDS011;9034;50.284;19.310;2023-02-22T00:12:48;38.58;;;19.20;;
17818;SDS011;9034;50.284;19.310;2023-02-22T00:13:52;35.33;;;18.67;;
17818;SDS011;9034;50.284;19.310;2023-02-22T00:14:57;31.73;;;16.80;;
17818;SDS011;9034;50.284;19.310;2023-02-22T00:16:00;39.92;;;19.25;;
17818;SDS011;9034;50.284;19.310;2023-02-22T00:17:02;39.78;;;20.70;;
17818;SDS011;9034;50.284;19.310;2023-02-22T00:18:05;43.47;;;19.88;;
17818;SDS011;9034;50.284;19.310;2023-02-22T00:19:08;39.47;;;20.38;;
17818;SDS011;9034;50.284;19.310;2023-02-22T00:20:12;41.35;;;20.55;;
17818;SDS011;9034;50.284;19.310;2023-02-22T00:21:16;40.00;;;19.27;;
17818;SDS011;9034;50.284;19.310;2023-02-22T00:22:19;42.45;;;19.25;;
17818;SDS011;9034;50.284;19.310;2023-02-22T00:23:22;47.10;;;22.08;;
17818;SDS011;9034;50.284;19.310;2023-02-22T00:24:25;42.40;;;20.17;;
17818;SDS011;9034;50.284;19.310;2023-02-22T00:25:29;48.28;;;23.77;;
17818;SDS011;9034;50.284;19.310;2023-02-22T00:26:51;42.55;;;20.67;;
17818;SDS011;9034;50.284;19.310;2023-02-22T00:27:58;47.80;;;21.63;;
17818;SDS011;9034;50.284;19.310;2023-02-22T00:29:00;50.00;;;21.88;;
17818;SDS011;9034;50.284;19.310;2023-02-22T00:30:03;42.70;;;22.60;;
17818;SDS011;9034;50.284;19.310;2023-02-22T00:31:06;39.53;;;22.50;;
17818;SDS011;9034;50.284;19.310;2023-02-22T00:32:09;41.20;;;19.77;;
17818;SDS011;9034;50.284;19.310;2023-02-22T00:33:14;45.25;;;20.92;;
17818;SDS011;9034;50.284;19.310;2023-02-22T00:34:17;43.90;;;20.98;;
17818;SDS011;9034;50.284;19.310;2023-02-22T00:35:20;43.85;;;19.20;;
17818;SDS011;9034;50.284;19.310;2023-02-22T00:36:25;37.95;;;19.73;;
17818;SDS011;9034;50.284;19.310;2023-02-22T00:37:27;36.28;;;19.45;;
17818;SDS011;9034;50.284;19.310;2023-02-22T00:38:32;62.92;;;27.13;;
17818;SDS011;9034;50.284;19.310;2023-02-22T00:39:35;48.00;;;20.45;;
17818;SDS011;9034;50.284;19.310;2023-02-22T00:40:38;46.55;;;22.75;;
17818;SDS011;9034;50.284;19.310;2023-02-22T00:41:40;44.33;;;18.85;;
17818;SDS011;9034;50.284;19.310;2023-02-22T00:42:43;39.08;;;18.50;;
17818;SDS011;9034;50.284;19.310;2023-02-22T00:43:48;39.17;;;18.00;;
17818;SDS011;9034;50.284;19.310;2023-02-22T00:44:52;36.28;;;17.55;;
17818;SDS011;9034;50.284;19.310;2023-02-22T00:45:54;40.47;;;18.42;;
17818;SDS011;9034;50.284;19.310;2023-02-22T00:46:59;37.78;;;16.42;;
17818;SDS011;9034;50.284;19.310;2023-02-22T00:48:01;33.78;;;15.98;;
17818;SDS011;9034;50.284;19.310;2023-02-22T00:49:05;37.15;;;15.82;;
17818;SDS011;9034;50.284;19.310;2023-02-22T00:50:07;35.47;;;16.05;;
17818;SDS011;9034;50.284;19.310;2023-02-22T00:51:11;33.78;;;16.17;;
17818;SDS011;9034;50.284;19.310;2023-02-22T00:52:13;34.30;;;16.35;;
17818;SDS011;9034;50.284;19.310;2023-02-22T00:53:16;32.42;;;15.48;;
17818;SDS011;9034;50.284;19.310;2023-02-22T00:54:18;37.08;;;16.33;;
17818;SDS011;9034;50.284;19.310;2023-02-22T00:55:22;33.10;;;15.95;;
17818;SDS011;9034;50.284;19.310;2023-02-22T00:56:25;36.63;;;17.95;;
17818;SDS011;9034;50.284;19.310;2023-02-22T00:57:28;29.08;;;15.75;;
17818;SDS011;9034;50.284;19.310;2023-02-22T00:58:30;38.67;;;17.75;;
17818;SDS011;9034;50.284;19.310;2023-02-22T00:59:34;34.33;;;17.85;;
17818;SDS011;9034;50.284;19.310;2023-02-22T01:00:37;35.70;;;16.60;;
17818;SDS011;9034;50.284;19.310;2023-02-22T01:01:42;35.80;;;18.23;;
17818;SDS011;9034;50.284;19.310;2023-02-22T01:02:44;33.95;;;15.95;;
17818;SDS011;9034;50.284;19.310;2023-02-22T01:03:51;38.88;;;16.20;;
17818;SDS011;9034;50.284;19.310;2023-02-22T01:04:53;36.42;;;16.88;;
17818;SDS011;9034;50.284;19.310;2023-02-22T01:05:57;42.70;;;16.75;;
17818;SDS011;9034;50.284;19.310;2023-02-22T01:06:59;32.30;;;15.75;;
17818;SDS011;9034;50.284;19.310;2023-02-22T01:08:03;34.78;;;16.65;;
17818;SDS011;9034;50.284;19.310;2023-02-22T01:09:07;30.50;;;16.02;;
17818;SDS011;9034;50.284;19.310;2023-02-22T01:10:10;30.25;;;15.30;;
17818;SDS011;9034;50.284;19.310;2023-02-22T01:11:13;31.58;;;15.60;;
17818;SDS011;9034;50.284;19.310;2023-02-22T01:12:17;33.97;;;16.55;;
17818;SDS011;9034;50.284;19.310;2023-02-22T01:13:22;30.25;;;16.15;;
17818;SDS011;9034;50.284;19.310;2023-02-22T01:14:26;28.67;;;15.18;;
17818;SDS011;9034;50.284;19.310;2023-02-22T01:15:31;32.30;;;15.82;;
17818;SDS011;9034;50.284;19.310;2023-02-22T01:16:34;27.92;;;13.82;;
17818;SDS011;9034;50.284;19.310;2023-02-22T01:17:36;30.67;;;14.65;;
17818;SDS011;9034;50.284;19.310;2023-02-22T01:18:42;28.88;;;14.35;;
17818;SDS011;9034;50.284;19.310;2023-02-22T01:19:44;31.38;;;14.43;;
17818;SDS011;9034;50.284;19.310;2023-02-22T01:20:47;27.00;;;15.07;;
17818;SDS011;9034;50.284;19.310;2023-02-22T01:21:49;31.95;;;15.15;;
17818;SDS011;9034;50.284;19.310;2023-02-22T01:22:52;33.70;;;15.20;;
17818;SDS011;9034;50.284;19.310;2023-02-22T01:23:56;32.45;;;15.60;;
17818;SDS011;9034;50.284;19.310;2023-02-22T01:24:59;34.38;;;15.85;;
17818;SDS011;9034;50.284;19.310;2023-02-22T01:26:01;34.85;;;17.00;;
17818;SDS011;9034;50.284;19.310;2023-02-22T01:27:06;27.80;;;15.00;;
17818;SDS011;9034;50.284;19.310;2023-02-22T01:28:08;37.88;;;15.95;;
17818;SDS011;9034;50.284;19.310;2023-02-22T01:29:11;36.15;;;16.40;;
17818;SDS011;9034;50.284;19.310;2023-02-22T01:30:16;32.80;;;15.60;;
17818;SDS011;9034;50.284;19.310;2023-02-22T01:31:23;33.08;;;15.20;;
17818;SDS011;9034;50.284;19.310;2023-02-22T01:32:25;28.88;;;15.75;;
17818;SDS011;9034;50.284;19.310;2023-02-22T01:33:29;30.88;;;15.23;;
17818;SDS011;9034;50.284;19.310;2023-02-22T01:34:33;29.00;;;14.07;;
17818;SDS011;9034;50.284;19.310;2023-02-22T01:35:36;32.60;;;16.08;;
17818;SDS011;9034;50.284;19.310;2023-02-22T01:36:41;36.58;;;16.77;;
17818;SDS011;9034;50.284;19.310;2023-02-22T01:37:43;34.15;;;14.85;;
17818;SDS011;9034;50.284;19.310;2023-02-22T01:38:47;33.22;;;14.95;;
17818;SDS011;9034;50.284;19.310;2023-02-22T01:39:49;45.15;;;17.30;;
17818;SDS011;9034;50.284;19.310;2023-02-22T01:40:51;55.33;;;21.50;;
17818;SDS011;9034;50.284;19.310;2023-02-22T01:41:54;40.42;;;16.85;;
17818;SDS011;9034;50.284;19.310;2023-02-22T01:42:57;46.15;;;18.42;;
17818;SDS011;9034;50.284;19.310;2023-02-22T01:44:15;49.08;;;19.05;;
17818;SDS011;9034;50.284;19.310;2023-02-22T01:45:33;42.50;;;17.65;;
17818;SDS011;9034;50.284;19.310;2023-02-22T01:46:46;28.55;;;13.55;;
17818;SDS011;9034;50.284;19.310;2023-02-22T01:47:48;37.55;;;15.77;;
17818;SDS011;9034;50.284;19.310;2023-02-22T01:48:53;35.95;;;16.17;;
17818;SDS011;9034;50.284;19.310;2023-02-22T01:49:58;31.85;;;15.43;;
17818;SDS011;9034;50.284;19.310;2023-02-22T01:51:01;35.28;;;16.65;;
17818;SDS011;9034;50.284;19.310;2023-02-22T01:52:12;33.83;;;15.77;;
17818;SDS011;9034;50.284;19.310;2023-02-22T01:53:17;31.38;;;14.73;;
17818;SDS011;9034;50.284;19.310;2023-02-22T01:54:22;29.80;;;14.93;;
17818;SDS011;9034;50.284;19.310;2023-02-22T01:55:26;28.65;;;14.52;;
17818;SDS011;9034;50.284;19.310;2023-02-22T01:56:31;39.78;;;16.67;;
17818;SDS011;9034;50.284;19.310;2023-02-22T01:57:35;35.15;;;15.15;;
17818;SDS011;9034;50.284;19.310;2023-02-22T01:58:39;32.55;;;15.82;;
17818;SDS011;9034;50.284;19.310;2023-02-22T01:59:43;32.58;;;15.43;;
17818;SDS011;9034;50.284;19.310;2023-02-22T02:00:49;36.10;;;15.07;;
17818;SDS011;9034;50.284;19.310;2023-02-22T02:01:52;39.30;;;16.45;;
17818;SDS011;9034;50.284;19.310;2023-02-22T02:02:59;30.48;;;15.43;;
17818;SDS011;9034;50.284;19.310;2023-02-22T02:04:03;37.38;;;17.05;;
17818;SDS011;9034;50.284;19.310;2023-02-22T02:05:07;38.00;;;17.42;;
17818;SDS011;9034;50.284;19.310;2023-02-22T02:06:11;35.63;;;17.63;;
17818;SDS011;9034;50.284;19.310;2023-02-22T02:07:16;38.53;;;16.27;;
17818;SDS011;9034;50.284;19.310;2023-02-22T02:08:21;43.45;;;19.35;;
17818;SDS011;9034;50.284;19.310;2023-02-22T02:09:32;36.47;;;17.98;;
17818;SDS011;9034;50.284;19.310;2023-02-22T02:10:36;33.45;;;17.45;;
17818;SDS011;9034;50.284;19.310;2023-02-22T02:11:39;44.22;;;17.85;;
17818;SDS011;9034;50.284;19.310;2023-02-22T02:12:44;46.50;;;21.58;;
17818;SDS011;9034;50.284;19.310;2023-02-22T02:13:48;54.03;;;25.85;;
17818;SDS011;9034;50.284;19.310;2023-02-22T02:14:52;53.03;;;25.27;;
17818;SDS011;9034;50.284;19.310;2023-02-22T02:15:54;59.47;;;24.38;;
17818;SDS011;9034;50.284;19.310;2023-02-22T02:16:59;57.13;;;25.58;;
17818;SDS011;9034;50.284;19.310;2023-02-22T02:18:04;52.17;;;26.33;;
17818;SDS011;9034;50.284;19.310;2023-02-22T02:19:09;50.80;;;25.02;;
17818;SDS011;9034;50.284;19.310;2023-02-22T02:20:21;54.25;;;24.50;;
17818;SDS011;9034;50.284;19.310;2023-02-22T02:23:07;48.50;;;23.45;;
17818;SDS011;9034;50.284;19.310;2023-02-22T02:24:28;46.08;;;23.65;;
17818;SDS011;9034;50.284;19.310;2023-02-22T02:26:09;55.65;;;23.83;;
17818;SDS011;9034;50.284;19.310;2023-02-22T02:27:21;59.10;;;24.13;;
17818;SDS011;9034;50.284;19.310;2023-02-22T02:28:47;57.03;;;24.33;;
17818;SDS011;9034;50.284;19.310;2023-02-22T02:30:20;52.90;;;25.65;;
17818;SDS011;9034;50.284;19.310;2023-02-22T02:32:01;46.03;;;21.92;;
17818;SDS011;9034;50.284;19.310;2023-02-22T02:33:15;51.45;;;22.88;;
17818;SDS011;9034;50.284;19.310;2023-02-22T02:34:22;46.70;;;24.63;;
17818;SDS011;9034;50.284;19.310;2023-02-22T02:35:32;54.33;;;23.10;;
17818;SDS011;9034;50.284;19.310;2023-02-22T02:36:42;56.40;;;24.05;;
17818;SDS011;9034;50.284;19.310;2023-02-22T02:37:51;48.47;;;23.33;;
17818;SDS011;9034;50.284;19.310;2023-02-22T02:38:58;51.38;;;23.77;;
17818;SDS011;9034;50.284;19.310;2023-02-22T02:40:10;47.10;;;24.25;;
17818;SDS011;9034;50.284;19.310;2023-02-22T02:41:19;46.40;;;22.85;;
17818;SDS011;9034;50.284;19.310;2023-02-22T02:42:30;45.85;;;23.50;;
17818;SDS011;9034;50.284;19.310;2023-02-22T02:43:37;49.30;;;23.02;;
17818;SDS011;9034;50.284;19.310;2023-02-22T02:44:45;42.42;;;22.08;;
17818;SDS011;9034;50.284;19.310;2023-02-22T02:45:50;46.47;;;22.58;;
17818;SDS011;9034;50.284;19.310;2023-02-22T02:46:59;58.08;;;23.23;;
17818;SDS011;9034;50.284;19.310;2023-02-22T02:48:04;57.75;;;24.88;;
17818;SDS011;9034;50.284;19.310;2023-02-22T02:49:09;47.55;;;24.02;;
17818;SDS011;9034;50.284;19.310;2023-02-22T02:50:13;52.10;;;23.63;;
17818;SDS011;9034;50.284;19.310;2023-02-22T02:51:18;63.92;;;30.10;;
17818;SDS011;9034;50.284;19.310;2023-02-22T02:52:24;61.53;;;29.98;;
17818;SDS011;9034;50.284;19.310;2023-02-22T02:53:30;66.70;;;31.98;;
17818;SDS011;9034;50.284;19.310;2023-02-22T02:54:36;59.97;;;27.83;;
17818;SDS011;9034;50.284;19.310;2023-02-22T02:55:41;58.47;;;28.10;;
17818;SDS011;9034;50.284;19.310;2023-02-22T02:56:44;55.53;;;26.65;;
17818;SDS011;9034;50.284;19.310;2023-02-22T02:57:47;52.08;;;26.85;;
17818;SDS011;9034;50.284;19.310;2023-02-22T02:58:49;59.10;;;29.35;;
17818;SDS011;9034;50.284;19.310;2023-02-22T02:59:56;45.90;;;24.05;;
17818;SDS011;9034;50.284;19.310;2023-02-22T03:00:59;47.38;;;24.42;;
17818;SDS011;9034;50.284;19.310;2023-02-22T03:02:09;46.67;;;23.60;;
17818;SDS011;9034;50.284;19.310;2023-02-22T03:03:30;44.63;;;22.05;;
17818;SDS011;9034;50.284;19.310;2023-02-22T03:04:50;45.47;;;21.83;;
17818;SDS011;9034;50.284;19.310;2023-02-22T03:06:16;48.40;;;22.02;;
17818;SDS011;9034;50.284;19.310;2023-02-22T03:07:30;53.05;;;18.25;;
17818;SDS011;9034;50.284;19.310;2023-02-22T03:08:37;36.28;;;17.27;;
17818;SDS011;9034;50.284;19.310;2023-02-22T03:09:47;45.17;;;20.75;;
17818;SDS011;9034;50.284;19.310;2023-02-22T03:10:57;50.80;;;19.35;;
17818;SDS011;9034;50.284;19.310;2023-02-22T03:12:08;46.33;;;17.50;;
17818;SDS011;9034;50.284;19.310;2023-02-22T03:13:18;47.33;;;22.00;;
17818;SDS011;9034;50.284;19.310;2023-02-22T03:14:28;42.45;;;19.70;;
17818;SDS011;9034;50.284;19.310;2023-02-22T03:15:41;43.55;;;19.83;;
17818;SDS011;9034;50.284;19.310;2023-02-22T03:16:47;43.05;;;21.73;;
17818;SDS011;9034;50.284;19.310;2023-02-22T03:17:55;56.08;;;23.65;;
17818;SDS011;9034;50.284;19.310;2023-02-22T03:19:05;47.78;;;22.38;;
17818;SDS011;9034;50.284;19.310;2023-02-22T03:20:10;52.25;;;24.63;;
17818;SDS011;9034;50.284;19.310;2023-02-22T03:21:19;49.10;;;23.42;;
17818;SDS011;9034;50.284;19.310;2023-02-22T03:22:25;40.08;;;20.40;;
17818;SDS011;9034;50.284;19.310;2023-02-22T03:23:31;52.78;;;23.92;;
17818;SDS011;9034;50.284;19.310;2023-02-22T03:24:37;49.50;;;22.33;;
17818;SDS011;9034;50.284;19.310;2023-02-22T03:25:45;48.45;;;21.05;;
17818;SDS011;9034;50.284;19.310;2023-02-22T03:26:52;47.25;;;22.00;;
17818;SDS011;9034;50.284;19.310;2023-02-22T03:27:59;51.90;;;20.90;;
17818;SDS011;9034;50.284;19.310;2023-02-22T03:29:04;54.40;;;23.85;;
17818;SDS011;9034;50.284;19.310;2023-02-22T03:30:09;43.83;;;21.13;;
17818;SDS011;9034;50.284;19.310;2023-02-22T03:31:14;44.92;;;21.33;;
17818;SDS011;9034;50.284;19.310;2023-02-22T03:32:20;48.35;;;21.33;;
17818;SDS011;9034;50.284;19.310;2023-02-22T03:33:26;41.15;;;21.17;;
17818;SDS011;9034;50.284;19.310;2023-02-22T03:34:36;45.67;;;20.73;;
17818;SDS011;9034;50.284;19.310;2023-02-22T03:35:41;48.88;;;19.15;;
17818;SDS011;9034;50.284;19.310;2023-02-22T03:36:51;47.33;;;20.35;;
17818;SDS011;9034;50.284;19.310;2023-02-22T03:37:58;41.55;;;18.95;;
17818;SDS011;9034;50.284;19.310;2023-02-22T03:39:03;39.88;;;18.80;;
17818;SDS011;9034;50.284;19.310;2023-02-22T03:40:09;44.47;;;18.48;;
17818;SDS011;9034;50.284;19.310;2023-02-22T03:41:16;39.63;;;19.27;;
17818;SDS011;9034;50.284;19.310;2023-02-22T03:42:22;39.67;;;17.48;;
17818;SDS011;9034;50.284;19.310;2023-02-22T03:43:26;38.40;;;18.88;;
17818;SDS011;9034;50.284;19.310;2023-02-22T03:44:34;39.50;;;18.70;;
17818;SDS011;9034;50.284;19.310;2023-02-22T03:45:39;42.53;;;19.17;;
17818;SDS011;9034;50.284;19.310;2023-02-22T03:46:45;37.58;;;17.88;;
17818;SDS011;9034;50.284;19.310;2023-02-22T03:47:50;35.42;;;17.23;;
17818;SDS011;9034;50.284;19.310;2023-02-22T03:48:57;44.67;;;18.50;;
17818;SDS011;9034;50.284;19.310;2023-02-22T03:50:06;38.92;;;17.45;;
17818;SDS011;9034;50.284;19.310;2023-02-22T03:51:11;42.13;;;18.33;;
17818;SDS011;9034;50.284;19.310;2023-02-22T03:52:19;43.50;;;18.20;;
17818;SDS011;9034;50.284;19.310;2023-02-22T03:53:23;40.05;;;17.73;;
17818;SDS011;9034;50.284;19.310;2023-02-22T03:54:25;46.22;;;19.15;;
17818;SDS011;9034;50.284;19.310;2023-02-22T03:55:30;34.25;;;18.35;;
17818;SDS011;9034;50.284;19.310;2023-02-22T03:56:32;41.90;;;19.70;;
17818;SDS011;9034;50.284;19.310;2023-02-22T03:57:40;41.67;;;18.73;;
17818;SDS011;9034;50.284;19.310;2023-02-22T03:58:43;40.58;;;18.73;;
17818;SDS011;9034;50.284;19.310;2023-02-22T03:59:49;40.22;;;18.92;;
17818;SDS011;9034;50.284;19.310;2023-02-22T04:00:51;38.38;;;18.85;;
17818;SDS011;9034;50.284;19.310;2023-02-22T04:01:54;34.97;;;17.75;;
17818;SDS011;9034;50.284;19.310;2023-02-22T04:02:57;35.47;;;19.23;;
17818;SDS011;9034;50.284;19.310;2023-02-22T04:04:01;37.83;;;18.52;;
17818;SDS011;9034;50.284;19.310;2023-02-22T04:05:05;35.88;;;18.58;;
17818;SDS011;9034;50.284;19.310;2023-02-22T04:06:09;41.65;;;19.02;;
17818;SDS011;9034;50.284;19.310;2023-02-22T04:07:11;35.28;;;18.65;;
17818;SDS011;9034;50.284;19.310;2023-02-22T04:08:14;41.10;;;19.23;;
17818;SDS011;9034;50.284;19.310;2023-02-22T04:09:16;36.25;;;18.38;;
17818;SDS011;9034;50.284;19.310;2023-02-22T04:10:20;37.67;;;17.98;;
17818;SDS011;9034;50.284;19.310;2023-02-22T04:11:23;36.30;;;18.58;;
17818;SDS011;9034;50.284;19.310;2023-02-22T04:12:26;42.60;;;18.45;;
17818;SDS011;9034;50.284;19.310;2023-02-22T04:13:32;50.13;;;20.02;;
17818;SDS011;9034;50.284;19.310;2023-02-22T04:14:34;46.13;;;20.45;;
17818;SDS011;9034;50.284;19.310;2023-02-22T04:15:36;46.75;;;20.90;;
17818;SDS011;9034;50.284;19.310;2023-02-22T04:16:42;39.83;;;19.92;;
17818;SDS011;9034;50.284;19.310;2023-02-22T04:17:44;42.13;;;19.73;;
17818;SDS011;9034;50.284;19.310;2023-02-22T04:18:48;38.90;;;19.13;;
17818;SDS011;9034;50.284;19.310;2023-02-22T04:19:53;38.05;;;19.27;;
17818;SDS011;9034;50.284;19.310;2023-02-22T04:20:58;41.83;;;19.65;;
17818;SDS011;9034;50.284;19.310;2023-02-22T04:22:07;42.40;;;18.70;;
17818;SDS011;9034;50.284;19.310;2023-02-22T04:23:10;46.28;;;19.92;;
17818;SDS011;9034;50.284;19.310;2023-02-22T04:24:14;45.67;;;19.77;;
17818;SDS011;9034;50.284;19.310;2023-02-22T04:25:17;49.05;;;20.75;;
17818;SDS011;9034;50.284;19.310;2023-02-22T04:26:21;45.42;;;21.35;;
17818;SDS011;9034;50.284;19.310;2023-02-22T04:27:28;41.25;;;19.55;;
17818;SDS011;9034;50.284;19.310;2023-02-22T04:28:31;47.20;;;19.10;;
17818;SDS011;9034;50.284;19.310;2023-02-22T04:29:43;49.28;;;19.83;;
17818;SDS011;9034;50.284;19.310;2023-02-22T04:30:45;50.85;;;21.52;;
17818;SDS011;9034;50.284;19.310;2023-02-22T04:31:50;42.95;;;19.27;;
17818;SDS011;9034;50.284;19.310;2023-02-22T04:32:53;40.30;;;18.92;;
17818;SDS011;9034;50.284;19.310;2023-02-22T04:33:56;46.53;;;19.50;;
17818;SDS011;9034;50.284;19.310;2023-02-22T04:35:04;43.53;;;19.08;;
17818;SDS011;9034;50.284;19.310;2023-02-22T04:36:08;46.72;;;20.52;;
17818;SDS011;9034;50.284;19.310;2023-02-22T04:37:11;54.28;;;20.17;;
17818;SDS011;9034;50.284;19.310;2023-02-22T04:38:14;54.70;;;21.17;;
17818;SDS011;9034;50.284;19.310;2023-02-22T04:39:16;42.92;;;18.25;;
17818;SDS011;9034;50.284;19.310;2023-02-22T04:40:19;37.00;;;18.55;;
17818;SDS011;9034;50.284;19.310;2023-02-22T04:41:21;40.65;;;19.15;;
17818;SDS011;9034;50.284;19.310;2023-02-22T04:42:26;48.78;;;19.75;;
17818;SDS011;9034;50.284;19.310;2023-02-22T04:43:29;41.17;;;19.05;;
17818;SDS011;9034;50.284;19.310;2023-02-22T04:44:39;39.78;;;18.67;;
17818;SDS011;9034;50.284;19.310;2023-02-22T04:45:41;45.00;;;19.67;;
17818;SDS011;9034;50.284;19.310;2023-02-22T04:46:43;44.25;;;20.88;;
17818;SDS011;9034;50.284;19.310;2023-02-22T04:47:48;41.60;;;18.88;;
17818;SDS011;9034;50.284;19.310;2023-02-22T04:48:51;46.47;;;20.77;;
17818;SDS011;9034;50.284;19.310;2023-02-22T04:49:56;42.17;;;19.85;;
17818;SDS011;9034;50.284;19.310;2023-02-22T04:51:02;46.47;;;21.02;;
17818;SDS011;9034;50.284;19.310;2023-02-22T04:52:05;45.10;;;21.33;;
17818;SDS011;9034;50.284;19.310;2023-02-22T04:53:11;49.55;;;19.35;;
17818;SDS011;9034;50.284;19.310;2023-02-22T04:54:13;49.85;;;20.70;;
17818;SDS011;9034;50.284;19.310;2023-02-22T04:55:20;41.38;;;18.77;;
17818;SDS011;9034;50.284;19.310;2023-02-22T04:56:23;39.15;;;19.02;;
17818;SDS011;9034;50.284;19.310;2023-02-22T04:57:26;45.47;;;20.83;;
17818;SDS011;9034;50.284;19.310;2023-02-22T04:58:29;34.90;;;19.17;;
17818;SDS011;9034;50.284;19.310;2023-02-22T04:59:32;37.03;;;18.60;;
17818;SDS011;9034;50.284;19.310;2023-02-22T05:00:35;37.15;;;19.58;;
17818;SDS011;9034;50.284;19.310;2023-02-22T05:01:39;44.97;;;19.98;;
17818;SDS011;9034;50.284;19.310;2023-02-22T05:02:41;44.40;;;20.95;;
17818;SDS011;9034;50.284;19.310;2023-02-22T05:03:44;44.80;;;20.85;;
17818;SDS011;9034;50.284;19.310;2023-02-22T05:04:45;44.65;;;20.20;;
17818;SDS011;9034;50.284;19.310;2023-02-22T05:05:50;37.90;;;18.92;;
17818;SDS011;9034;50.284;19.310;2023-02-22T05:06:53;41.28;;;18.88;;
17818;SDS011;9034;50.284;19.310;2023-02-22T05:07:56;38.75;;;20.10;;
17818;SDS011;9034;50.284;19.310;2023-02-22T05:08:58;38.63;;;20.42;;
17818;SDS011;9034;50.284;19.310;2023-02-22T05:10:00;43.03;;;19.13;;
17818;SDS011;9034;50.284;19.310;2023-02-22T05:11:03;48.63;;;19.48;;
17818;SDS011;9034;50.284;19.310;2023-02-22T05:12:06;49.45;;;23.35;;
17818;SDS011;9034;50.284;19.310;2023-02-22T05:13:08;53.20;;;24.75;;
17818;SDS011;9034;50.284;19.310;2023-02-22T05:14:11;48.28;;;24.10;;
17818;SDS011;9034;50.284;19.310;2023-02-22T05:15:14;41.10;;;21.60;;
17818;SDS011;9034;50.284;19.310;2023-02-22T05:16:18;48.65;;;22.23;;
17818;SDS011;9034;50.284;19.310;2023-02-22T05:17:20;50.72;;;21.77;;
17818;SDS011;9034;50.284;19.310;2023-02-22T05:18:22;42.10;;;21.52;;
17818;SDS011;9034;50.284;19.310;2023-02-22T05:19:24;41.63;;;20.48;;
17818;SDS011;9034;50.284;19.310;2023-02-22T05:20:29;45.97;;;21.20;;
17818;SDS011;9034;50.284;19.310;2023-02-22T05:21:31;48.65;;;22.48;;
17818;SDS011;9034;50.284;19.310;2023-02-22T05:22:36;46.47;;;21.23;;
17818;SDS011;9034;50.284;19.310;2023-02-22T05:23:37;51.47;;;24.35;;
17818;SDS011;9034;50.284;19.310;2023-02-22T05:24:41;47.25;;;21.95;;
17818;SDS011;9034;50.284;19.310;2023-02-22T05:25:44;54.53;;;23.48;;
17818;SDS011;9034;50.284;19.310;2023-02-22T05:26:47;43.90;;;21.77;;
17818;SDS011;9034;50.284;19.310;2023-02-22T05:27:51;44.95;;;21.25;;
17818;SDS011;9034;50.284;19.310;2023-02-22T05:28:55;49.42;;;24.15;;
17818;SDS011;9034;50.284;19.310;2023-02-22T05:29:56;52.38;;;26.67;;
17818;SDS011;9034;50.284;19.310;2023-02-22T05:30:59;50.95;;;23.80;;
17818;SDS011;9034;50.284;19.310;2023-02-22T05:32:01;54.78;;;28.98;;
17818;SDS011;9034;50.284;19.310;2023-02-22T05:33:04;53.58;;;27.05;;
17818;SDS011;9034;50.284;19.310;2023-02-22T05:34:06;50.67;;;27.60;;
17818;SDS011;9034;50.284;19.310;2023-02-22T05:35:09;55.15;;;27.75;;
17818;SDS011;9034;50.284;19.310;2023-02-22T05:36:11;55.97;;;28.17;;
17818;SDS011;9034;50.284;19.310;2023-02-22T05:37:14;53.08;;;28.23;;
17818;SDS011;9034;50.284;19.310;2023-02-22T05:38:17;67.78;;;30.17;;
17818;SDS011;9034;50.284;19.310;2023-02-22T05:39:20;57.35;;;27.45;;
17818;SDS011;9034;50.284;19.310;2023-02-22T05:40:23;52.60;;;23.80;;
17818;SDS011;9034;50.284;19.310;2023-02-22T05:41:27;54.22;;;25.08;;
17818;SDS011;9034;50.284;19.310;2023-02-22T05:42:29;50.42;;;24.80;;
17818;SDS011;9034;50.284;19.310;2023-02-22T05:43:32;54.40;;;26.77;;
17818;SDS011;9034;50.284;19.310;2023-02-22T05:44:33;64.32;;;29.83;;
17818;SDS011;9034;50.284;19.310;2023-02-22T05:45:36;55.00;;;27.27;;
17818;SDS011;9034;50.284;19.310;2023-02-22T05:46:38;59.88;;;29.20;;
17818;SDS011;9034;50.284;19.310;2023-02-22T05:47:41;59.53;;;30.25;;
17818;SDS011;9034;50.284;19.310;2023-02-22T05:48:43;70.30;;;28.70;;
17818;SDS011;9034;50.284;19.310;2023-02-22T05:49:46;57.92;;;27.33;;
17818;SDS011;9034;50.284;19.310;2023-02-22T05:50:48;53.65;;;26.23;;
17818;SDS011;9034;50.284;19.310;2023-02-22T05:51:51;53.15;;;24.92;;
17818;SDS011;9034;50.284;19.310;2023-02-22T05:52:53;55.47;;;24.20;;
17818;SDS011;9034;50.284;19.310;2023-02-22T05:53:58;57.65;;;25.25;;
17818;SDS011;9034;50.284;19.310;2023-02-22T05:54:59;52.08;;;26.05;;
17818;SDS011;9034;50.284;19.310;2023-02-22T05:56:02;54.58;;;28.08;;
17818;SDS011;9034;50.284;19.310;2023-02-22T05:57:05;53.88;;;26.15;;
17818;SDS011;9034;50.284;19.310;2023-02-22T05:58:08;64.93;;;29.00;;
17818;SDS011;9034;50.284;19.310;2023-02-22T05:59:10;67.70;;;31.55;;
17818;SDS011;9034;50.284;19.310;2023-02-22T06:00:14;58.22;;;28.92;;
17818;SDS011;9034;50.284;19.310;2023-02-22T06:01:18;74.78;;;34.83;;
17818;SDS011;9034;50.284;19.310;2023-02-22T06:02:21;92.22;;;40.67;;
17818;SDS011;9034;50.284;19.310;2023-02-22T06:03:24;120.40;;;48.05;;
17818;SDS011;9034;50.284;19.310;2023-02-22T06:04:26;116.68;;;46.63;;
17818;SDS011;9034;50.284;19.310;2023-02-22T06:05:29;95.43;;;42.13;;
17818;SDS011;9034;50.284;19.310;2023-02-22T06:06:31;100.57;;;45.83;;
17818;SDS011;9034;50.284;19.310;2023-02-22T06:07:34;96.28;;;42.42;;
17818;SDS011;9034;50.284;19.310;2023-02-22T06:08:36;93.45;;;40.70;;
17818;SDS011;9034;50.284;19.310;2023-02-22T06:09:40;89.78;;;38.60;;
17818;SDS011;9034;50.284;19.310;2023-02-22T06:10:42;97.15;;;39.78;;
17818;SDS011;9034;50.284;19.310;2023-02-22T06:11:45;89.28;;;40.40;;
17818;SDS011;9034;50.284;19.310;2023-02-22T06:12:47;102.43;;;42.33;;
17818;SDS011;9034;50.284;19.310;2023-02-22T06:13:51;97.93;;;43.00;;
17818;SDS011;9034;50.284;19.310;2023-02-22T06:14:54;96.78;;;41.58;;
17818;SDS011;9034;50.284;19.310;2023-02-22T06:15:56;107.78;;;44.03;;
17818;SDS011;9034;50.284;19.310;2023-02-22T06:17:00;91.57;;;42.47;;
17818;SDS011;9034;50.284;19.310;2023-02-22T06:18:02;96.03;;;42.92;;
17818;SDS011;9034;50.284;19.310;2023-02-22T06:19:05;94.72;;;41.05;;
17818;SDS011;9034;50.284;19.310;2023-02-22T06:20:07;90.88;;;42.97;;
17818;SDS011;9034;50.284;19.310;2023-02-22T06:21:11;102.32;;;43.85;;
17818;SDS011;9034;50.284;19.310;2023-02-22T06:22:16;92.00;;;44.17;;